Time;durP1;ratioP1;P1;durP2;ratioP2;P2;SDS_P1;SDS_P2;PMS_P1;PMS_P2;Temp;Humidity;BMP_temperature;BMP_pressure;BME280_temperature;BME280_humidity;BME280_pressure;Samples;Min_cycle;Max_cycle;Signal;HPM_P1;HPM_P2
2022/08/01 00:01:49;;;;;;;11.23;10.43;;;;;;;24.76;52.73;99107.69;5070032;28;20199;-65
2022/08/01 00:04:15;;;;;;;10.50;9.77;;;;;;;24.74;52.45;99097.25;5070150;28;20252;-67
2022/08/01 00:06:44;;;;;;;10.68;9.88;;;;;;;24.79;52.23;99111.06;5069121;28;20445;-66
2022/08/01 00:09:10;;;;;;;10.30;9.30;;;;;;;24.87;52.20;99095.78;5070033;28;20198;-67
2022/08/01 00:11:37;;;;;;;10.07;9.37;;;;;;;24.88;51.64;99101.91;5069895;28;20279;-67
2022/08/01 00:14:04;;;;;;;10.77;9.87;;;;;;;24.87;51.81;99093.16;5069851;28;20197;-66
2022/08/01 00:16:31;;;;;;;10.23;9.53;;;;;;;24.86;51.83;99088.81;5069665;28;20222;-59
2022/08/01 00:18:58;;;;;;;10.37;9.63;;;;;;;24.85;51.32;99094.16;5069708;28;20575;-59
2022/08/01 00:21:24;;;;;;;10.37;9.47;;;;;;;24.90;51.60;99089.53;5069847;28;20198;-59
2022/08/01 00:23:53;;;;;;;10.10;9.30;;;;;;;24.82;51.69;99095.16;5069710;28;20200;-59
2022/08/01 00:26:20;;;;;;;10.17;9.40;;;;;;;24.86;51.40;99087.97;5069694;28;20682;-59
2022/08/01 00:28:47;;;;;;;10.13;9.37;;;;;;;24.90;51.57;99090.38;5069815;28;20191;-59
2022/08/01 00:31:13;;;;;;;10.37;9.63;;;;;;;24.84;51.17;99089.81;5069879;28;20203;-59
2022/08/01 00:33:40;;;;;;;10.47;9.77;;;;;;;24.85;51.24;99091.53;5069869;28;20191;-59
2022/08/01 00:36:07;;;;;;;11.03;10.10;;;;;;;24.77;51.73;99094.50;5069445;28;20202;-59
2022/08/01 00:38:34;;;;;;;10.97;10.07;;;;;;;24.85;51.13;99097.63;5069337;28;20219;-60
2022/08/01 00:41:02;;;;;;;10.83;10.00;;;;;;;24.79;51.05;99099.66;5069501;28;20199;-59
2022/08/01 00:43:29;;;;;;;11.07;10.13;;;;;;;24.74;51.39;99096.41;5069381;28;20210;-59
2022/08/01 00:45:56;;;;;;;10.30;9.60;;;;;;;24.66;51.19;99107.28;5069714;28;20446;-59
2022/08/01 00:48:22;;;;;;;11.13;10.17;;;;;;;24.62;51.57;99106.56;5073337;28;20539;-59
2022/08/01 00:50:50;;;;;;;10.40;9.60;;;;;;;24.59;51.71;99106.72;5073336;28;20313;-59
2022/08/01 00:53:17;;;;;;;10.40;9.63;;;;;;;24.50;51.59;99109.75;5073290;28;20678;-59
2022/08/01 00:55:44;;;;;;;10.87;10.07;;;;;;;24.50;51.47;99104.50;5073186;28;20192;-59
2022/08/01 00:58:12;;;;;;;11.20;10.40;;;;;;;24.44;51.40;99107.44;5072930;28;20755;-59
2022/08/01 01:00:39;;;;;;;10.83;10.03;;;;;;;24.38;52.05;99109.47;5073184;28;20192;-59
2022/08/01 01:03:06;;;;;;;11.20;10.37;;;;;;;24.30;52.09;99098.47;5073276;28;20192;-59
2022/08/01 01:05:41;;;;;;;9.80;9.10;;;;;;;24.31;51.67;99105.44;5073072;28;20187;-60
2022/08/01 01:08:14;;;;;;;10.25;9.45;;;;;;;24.26;52.11;99103.00;5072822;28;20433;-60
2022/08/01 01:10:47;;;;;;;9.87;9.17;;;;;;;24.18;52.26;99101.66;5073121;28;20196;-59
2022/08/01 01:13:21;;;;;;;10.80;10.00;;;;;;;24.19;52.36;99106.00;5072927;28;20202;-60
2022/08/01 01:15:56;;;;;;;10.77;9.97;;;;;;;24.14;52.13;99115.84;5073121;28;20202;-60
2022/08/01 01:18:25;;;;;;;10.00;9.30;;;;;;;24.05;52.87;99114.44;5072860;28;20218;-60
2022/08/01 01:20:59;;;;;;;10.67;9.87;;;;;;;24.01;52.51;99111.09;5072755;28;20195;-59
2022/08/01 01:23:41;;;;;;;10.30;9.50;;;;;;;24.02;53.03;99114.59;5072803;28;20201;-59
2022/08/01 01:26:29;;;;;;;10.77;9.97;;;;;;;23.99;52.45;99115.56;5072743;28;20757;-59
2022/08/01 01:29:09;;;;;;;10.30;9.50;;;;;;;23.93;53.09;99118.47;5072655;28;20288;-59
2022/08/01 01:31:44;;;;;;;10.20;9.30;;;;;;;23.90;52.80;99112.47;5072842;28;20202;-59
2022/08/01 01:34:13;;;;;;;9.93;9.23;;;;;;;23.90;53.06;99112.47;5072606;28;20195;-59
2022/08/01 01:36:43;;;;;;;10.50;9.70;;;;;;;23.82;53.04;99111.97;5072677;28;20200;-59
2022/08/01 01:39:10;;;;;;;10.00;9.30;;;;;;;23.74;53.29;99109.69;5072553;28;20196;-60
2022/08/01 01:41:39;;;;;;;9.80;9.10;;;;;;;23.72;53.99;99108.03;5072402;28;20191;-59
2022/08/01 01:44:10;;;;;;;10.03;9.33;;;;;;;23.70;53.90;99118.63;5072717;28;20681;-59
2022/08/01 01:46:37;;;;;;;10.47;9.73;;;;;;;23.59;54.07;99105.13;5072355;28;20192;-59
2022/08/01 01:49:04;;;;;;;10.43;9.63;;;;;;;23.57;54.39;99121.84;5071605;28;20519;-59
2022/08/01 01:51:32;;;;;;;10.80;10.00;;;;;;;23.58;54.23;99113.03;5072337;28;20437;-59
2022/08/01 01:54:02;;;;;;;9.60;9.00;;;;;;;23.56;54.34;99107.88;5072090;28;20199;-59
2022/08/01 01:56:30;;;;;;;11.10;10.27;;;;;;;23.54;54.37;99107.06;5072243;28;20244;-59
2022/08/01 01:59:01;;;;;;;14.60;10.27;;;;;;;23.51;54.66;99109.84;5070959;28;20644;-59
2022/08/01 02:01:33;;;;;;;11.03;10.07;;;;;;;23.46;54.90;99111.78;5072009;28;20191;-59
2022/08/01 02:04:03;;;;;;;9.80;9.00;;;;;;;23.43;54.70;99117.16;5072055;28;20324;-59
2022/08/01 02:06:32;;;;;;;10.33;9.57;;;;;;;23.44;54.55;99117.09;5072220;28;20290;-59
2022/08/01 02:09:02;;;;;;;10.53;9.63;;;;;;;23.40;54.39;99112.06;5072380;28;20195;-60
2022/08/01 02:11:29;;;;;;;10.20;9.50;;;;;;;23.37;54.79;99120.00;5071793;28;20444;-59
2022/08/01 02:13:59;;;;;;;10.17;9.27;;;;;;;23.28;54.16;99102.03;5071776;28;20202;-59
2022/08/01 02:16:30;;;;;;;10.57;9.83;;;;;;;23.25;54.54;99086.41;5071816;28;20188;-59
2022/08/01 02:18:57;;;;;;;10.33;9.43;;;;;;;23.45;54.31;99107.47;5071726;28;20219;-59
2022/08/01 02:21:30;;;;;;;10.80;9.83;;;;;;;23.47;54.13;99108.25;5071760;28;20718;-59
2022/08/01 02:24:04;;;;;;;10.53;9.63;;;;;;;23.46;54.24;99114.38;5071620;28;20191;-59
2022/08/01 02:26:31;;;;;;;9.60;8.80;;;;;;;23.50;53.80;99115.97;5071550;28;20682;-60
2022/08/01 02:29:03;;;;;;;10.00;9.10;;;;;;;23.50;53.91;99113.34;5071462;28;20195;-60
2022/08/01 02:31:35;;;;;;;9.70;9.00;;;;;;;23.54;53.98;99111.47;5071321;28;20194;-60
2022/08/01 02:34:06;;;;;;;9.23;8.53;;;;;;;23.54;53.73;99114.09;5071460;28;20196;-58
2022/08/01 02:36:36;;;;;;;9.93;8.87;;;;;;;23.52;53.47;99114.13;5071260;28;20570;-58
2022/08/01 02:39:12;;;;;;;8.93;8.33;;;;;;;23.49;53.47;99104.63;5071252;28;20296;-59
2022/08/01 02:41:42;;;;;;;8.87;8.17;;;;;;;23.44;53.61;99110.97;5071160;28;20187;-59
2022/08/01 02:44:16;;;;;;;8.90;8.30;;;;;;;23.35;54.05;99106.94;5071206;28;20195;-59
2022/08/01 02:46:50;;;;;;;8.77;8.10;;;;;;;23.39;53.58;99103.31;5071105;28;20196;-59
2022/08/01 02:49:19;;;;;;;8.30;7.70;;;;;;;23.37;53.08;99105.16;5071187;28;20199;-59
2022/08/01 02:51:48;;;;;;;8.70;8.05;;;;;;;23.35;52.85;99112.19;5070934;28;20434;-60
2022/08/01 02:54:16;;;;;;;8.60;8.00;;;;;;;23.30;53.53;99097.56;5070928;28;20659;-60
2022/08/01 02:56:45;;;;;;;8.37;7.77;;;;;;;23.29;53.21;99093.25;5070860;28;20270;-59
2022/08/01 02:59:16;;;;;;;8.90;8.20;;;;;;;23.30;53.18;99101.03;5070748;28;20223;-59
2022/08/01 03:01:46;;;;;;;9.07;8.37;;;;;;;23.25;52.69;99100.38;5070871;28;20191;-59
2022/08/01 03:04:13;;;;;;;8.77;8.07;;;;;;;23.19;52.74;99099.78;5070691;28;20199;-59
2022/08/01 03:06:41;;;;;;;8.90;8.10;;;;;;;23.24;52.72;99098.66;5070691;28;20236;-59
2022/08/01 03:09:09;;;;;;;8.43;7.73;;;;;;;23.23;52.82;99101.38;5070596;28;20188;-59
2022/08/01 03:11:38;;;;;;;7.90;7.30;;;;;;;23.18;53.25;99104.19;5071173;28;20187;-59
2022/08/01 03:14:10;;;;;;;8.80;7.97;;;;;;;23.20;52.54;99109.34;5070648;28;20859;-59
2022/08/01 03:16:39;;;;;;;8.20;7.43;;;;;;;23.10;52.51;99103.63;5070684;28;20198;-59
2022/08/01 03:19:09;;;;;;;7.90;7.20;;;;;;;23.19;52.48;99102.41;5070420;28;20242;-59
2022/08/01 03:21:38;;;;;;;7.87;7.07;;;;;;;23.20;52.09;99093.63;5070376;28;20196;-59
2022/08/01 03:24:07;;;;;;;7.40;6.83;;;;;;;23.24;51.55;99088.19;5070356;28;20223;-59
2022/08/01 03:26:37;;;;;;;8.00;6.93;;;;;;;23.12;51.35;99064.25;5070190;28;20666;-59
2022/08/01 03:29:07;;;;;;;9.57;7.20;;;;;;;23.26;51.41;99090.75;5070361;28;20188;-60
2022/08/01 03:31:36;;;;;;;8.10;7.30;;;;;;;23.29;51.34;99101.94;5070743;28;20676;-60
2022/08/01 03:34:03;;;;;;;7.00;6.40;;;;;;;23.29;51.29;99088.84;5070304;28;20279;-60
2022/08/01 03:36:33;;;;;;;7.37;6.70;;;;;;;23.33;50.61;99098.28;5070363;28;20199;-60
2022/08/01 03:39:04;;;;;;;6.97;6.47;;;;;;;23.31;50.70;99084.41;5070061;28;20694;-60
2022/08/01 03:41:38;;;;;;;6.07;5.63;;;;;;;23.38;50.05;99082.41;5070135;28;20278;-60
2022/08/01 03:44:11;;;;;;;6.80;6.20;;;;;;;23.47;49.76;99090.75;5069958;28;20191;-60
2022/08/01 03:46:44;;;;;;;7.03;6.10;;;;;;;23.45;50.17;99089.09;5070178;28;20202;-60
2022/08/01 03:49:14;;;;;;;6.33;5.90;;;;;;;23.49;49.43;99088.91;5070171;28;20196;-59
2022/08/01 03:51:47;;;;;;;6.50;5.80;;;;;;;23.47;49.95;99095.13;5069843;28;20202;-59
2022/08/01 03:54:17;;;;;;;6.60;6.00;;;;;;;23.54;49.45;99086.06;5069675;28;20931;-59
2022/08/01 03:56:47;;;;;;;6.67;5.87;;;;;;;23.67;48.74;99103.00;5069858;28;20191;-59
2022/08/01 03:59:15;;;;;;;6.20;5.80;;;;;;;23.63;48.37;99098.81;5070147;28;20676;-59
2022/08/01 04:01:43;;;;;;;6.40;5.90;;;;;;;23.62;49.11;99098.88;5070070;28;20274;-59
2022/08/01 04:04:10;;;;;;;7.13;6.53;;;;;;;23.65;48.55;99091.72;5069704;28;20191;-59
2022/08/01 04:06:38;;;;;;;6.33;5.77;;;;;;;23.64;48.92;99094.41;5069763;28;20203;-59
2022/08/01 04:09:08;;;;;;;7.10;6.50;;;;;;;23.63;48.49;99097.94;5069871;28;20195;-60
2022/08/01 04:11:35;;;;;;;6.63;6.03;;;;;;;23.61;48.47;99089.28;5070065;28;20206;-60
2022/08/01 04:14:03;;;;;;;6.60;6.00;;;;;;;23.67;48.76;99107.41;5069852;28;20195;-60
2022/08/01 04:16:30;;;;;;;6.50;5.97;;;;;;;23.66;48.37;99103.91;5069898;28;20199;-59
2022/08/01 04:18:57;;;;;;;5.90;5.50;;;;;;;23.70;48.81;99107.28;5069574;28;20224;-59
2022/08/01 04:21:28;;;;;;;6.87;6.37;;;;;;;23.75;48.26;99105.28;5073056;28;20198;-59
2022/08/01 04:23:58;;;;;;;6.83;6.33;;;;;;;23.73;48.27;99115.88;5076195;28;20278;-59
2022/08/01 04:26:28;;;;;;;6.37;5.77;;;;;;;23.75;48.25;99107.91;5076561;28;20198;-59
2022/08/01 04:28:56;;;;;;;6.60;6.00;;;;;;;23.80;47.66;99104.19;5076121;28;20712;-59
2022/08/01 04:31:26;;;;;;;7.27;6.77;;;;;;;23.79;48.30;99115.56;5075945;28;20232;-59
2022/08/01 04:33:55;;;;;;;7.00;6.27;;;;;;;23.85;48.16;99102.19;5076460;28;20707;-59
2022/08/01 04:36:24;;;;;;;7.03;6.33;;;;;;;23.93;47.81;99113.22;5076106;28;20241;-60
2022/08/01 04:38:55;;;;;;;6.20;5.70;;;;;;;23.96;47.52;99117.47;5076165;28;20226;-60
2022/08/01 04:41:23;;;;;;;6.43;5.83;;;;;;;23.91;47.12;99116.81;5075853;28;20692;-61
2022/08/01 04:43:52;;;;;;;6.80;6.30;;;;;;;23.96;46.90;99115.69;5076158;28;20195;-59
2022/08/01 04:46:19;;;;;;;8.03;5.47;;;;;;;24.01;46.58;99118.13;5075914;28;20199;-59
2022/08/01 04:48:47;;;;;;;7.33;6.43;;;;;;;24.03;46.95;99111.88;5076539;28;20199;-60
2022/08/01 04:51:16;;;;;;;7.53;6.93;;;;;;;24.04;46.78;99113.59;5075962;28;20701;-60
2022/08/01 04:53:43;;;;;;;5.50;5.00;;;;;;;23.98;46.47;99119.09;5076220;28;20244;-60
2022/08/01 04:56:12;;;;;;;7.10;6.43;;;;;;;24.05;46.48;99122.31;5076093;28;20287;-60
2022/08/01 04:58:40;;;;;;;6.72;6.15;;;;;;;24.13;46.42;99120.25;5074470;28;20544;-60
2022/08/01 05:01:09;;;;;;;6.97;6.20;;;;;;;24.22;46.11;99118.97;5076080;28;20199;-60
2022/08/01 05:03:36;;;;;;;6.50;5.97;;;;;;;24.27;45.91;99117.00;5075900;28;20196;-60
2022/08/01 05:06:02;;;;;;;6.13;5.63;;;;;;;24.25;46.04;99111.81;5076270;28;20276;-60
2022/08/01 05:08:31;;;;;;;6.73;6.10;;;;;;;24.23;46.37;99111.03;5076370;28;20195;-60
2022/08/01 05:10:57;;;;;;;7.33;6.07;;;;;;;24.25;47.37;99121.47;5076162;28;20737;-60
2022/08/01 05:13:25;;;;;;;6.67;6.07;;;;;;;24.29;46.51;99116.00;5075819;28;20544;-60
2022/08/01 05:15:52;;;;;;;6.90;6.40;;;;;;;24.34;47.86;99115.78;5076079;28;20230;-60
2022/08/01 05:18:21;;;;;;;7.10;6.50;;;;;;;24.44;48.20;99127.59;5076181;28;20219;-60
2022/08/01 05:20:48;;;;;;;8.73;6.20;;;;;;;24.40;46.34;99116.38;5074703;28;20443;-59
2022/08/01 05:23:15;;;;;;;8.07;5.73;;;;;;;24.48;45.67;99113.38;5075379;28;20203;-59
2022/08/01 05:25:42;;;;;;;8.57;6.87;;;;;;;24.45;46.55;99113.53;5075726;28;20202;-59
2022/08/01 05:28:08;;;;;;;6.67;5.77;;;;;;;24.53;45.96;99101.75;5075935;28;20199;-59
2022/08/01 05:30:35;;;;;;;6.30;5.73;;;;;;;24.65;45.26;99111.69;5075141;28;20297;-65
2022/08/01 05:33:02;;;;;;;5.70;5.20;;;;;;;24.74;45.25;99104.28;5072163;28;20196;-66
2022/08/01 05:35:30;;;;;;;6.17;5.57;;;;;;;24.81;45.28;99103.94;5072081;28;20608;-67
2022/08/01 05:37:57;;;;;;;7.47;5.50;;;;;;;24.95;43.87;99106.78;5072258;28;20202;-67
2022/08/01 05:40:24;;;;;;;6.20;5.33;;;;;;;25.00;42.80;99110.03;5072097;28;20191;-66
2022/08/01 05:42:51;;;;;;;5.37;4.97;;;;;;;25.01;41.42;99114.38;5071959;28;20196;-67
2022/08/01 05:45:17;;;;;;;4.90;4.40;;;;;;;25.04;41.54;99111.59;5071601;28;20203;-67
2022/08/01 05:47:44;;;;;;;6.57;4.67;;;;;;;24.91;41.42;99109.63;5071898;28;20658;-66
2022/08/01 05:50:12;;;;;;;7.73;5.27;;;;;;;25.02;41.61;99108.19;5071866;28;20206;-67
2022/08/01 05:52:40;;;;;;;6.10;5.10;;;;;;;25.20;41.14;99115.19;5071745;28;20235;-67
2022/08/01 05:55:09;;;;;;;5.60;4.83;;;;;;;25.24;40.26;99121.97;5071862;28;20252;-67
2022/08/01 05:57:36;;;;;;;9.17;4.23;;;;;;;25.29;39.61;99108.63;5071554;28;20228;-66
2022/08/01 06:00:03;;;;;;;5.90;4.30;;;;;;;25.42;39.25;99103.59;5071014;28;20816;-67
2022/08/01 06:02:30;;;;;;;5.27;4.47;;;;;;;25.53;37.98;99106.56;5071511;28;20312;-67
2022/08/01 06:04:57;;;;;;;4.70;3.83;;;;;;;25.51;37.61;99103.16;5071626;28;20198;-67
2022/08/01 06:07:23;;;;;;;3.73;3.43;;;;;;;25.55;37.44;99107.31;5071234;28;20203;-67
2022/08/01 06:09:52;;;;;;;7.57;3.40;;;;;;;25.42;36.53;99112.34;5071421;28;20199;-65
2022/08/01 06:12:18;;;;;;;4.33;3.27;;;;;;;25.43;37.16;99115.81;5071323;28;20192;-67
2022/08/01 06:14:45;;;;;;;3.70;3.30;;;;;;;25.50;37.27;99102.31;5071780;28;20221;-67
2022/08/01 06:17:12;;;;;;;3.70;3.40;;;;;;;25.60;36.43;99107.97;5071804;28;20209;-67
2022/08/01 06:19:39;;;;;;;3.60;3.33;;;;;;;25.62;36.62;99104.31;5071228;28;20200;-67
2022/08/01 06:22:06;;;;;;;11.13;3.57;;;;;;;25.75;36.50;99099.28;5071145;28;20202;-67
2022/08/01 06:24:32;;;;;;;4.80;4.27;;;;;;;25.90;36.40;99106.38;5071163;28;20188;-61
2022/08/01 06:27:01;;;;;;;5.87;3.43;;;;;;;25.93;35.47;99105.38;5071174;28;20191;-58
2022/08/01 06:29:28;;;;;;;3.03;2.83;;;;;;;25.96;35.60;99097.31;5070941;28;20192;-67
2022/08/01 06:31:54;;;;;;;3.67;3.37;;;;;;;25.93;35.35;99098.31;5071288;28;20199;-65
2022/08/01 06:34:22;;;;;;;3.73;3.13;;;;;;;25.89;34.99;99099.41;5070840;28;20203;-67
2022/08/01 06:36:48;;;;;;;5.43;3.47;;;;;;;26.02;35.27;99095.19;5070966;28;20611;-66
2022/08/01 06:39:15;;;;;;;4.33;3.00;;;;;;;26.04;34.38;99089.88;5070989;28;20226;-67
2022/08/01 06:41:44;;;;;;;4.03;3.53;;;;;;;26.11;34.92;99083.31;5071187;28;20597;-67
2022/08/01 06:44:13;;;;;;;6.97;3.50;;;;;;;26.22;35.06;99091.53;5070743;28;20209;-67
2022/08/01 06:46:39;;;;;;;4.20;3.37;;;;;;;26.10;34.67;99094.78;5070885;28;20566;-67
2022/08/01 06:49:06;;;;;;;4.03;3.33;;;;;;;26.05;34.67;99099.44;5071080;28;20206;-66
2022/08/01 06:51:33;;;;;;;4.13;3.30;;;;;;;26.03;35.03;99091.66;5070711;28;20195;-66
2022/08/01 06:54:00;;;;;;;3.80;3.50;;;;;;;26.22;35.30;99081.00;5070699;28;20187;-67
2022/08/01 06:56:27;;;;;;;3.63;3.33;;;;;;;25.99;34.15;99042.69;5070696;28;20577;-65
2022/08/01 06:58:56;;;;;;;3.67;3.37;;;;;;;26.26;34.17;99078.09;5070062;28;20227;-67
2022/08/01 07:01:24;;;;;;;5.87;3.50;;;;;;;26.40;34.30;99079.16;5070132;28;20191;-65
2022/08/01 07:03:52;;;;;;;4.05;3.67;;;;;;;26.41;34.67;99080.84;5069383;28;20445;-65
2022/08/01 07:06:19;;;;;;;3.90;3.40;;;;;;;26.62;34.10;99075.25;5069907;28;20200;-67
2022/08/01 07:08:46;;;;;;;3.57;3.27;;;;;;;26.68;33.22;99077.53;5069946;28;20187;-66
2022/08/01 07:11:12;;;;;;;3.47;3.17;;;;;;;26.64;33.95;99076.03;5069617;28;20195;-67
2022/08/01 07:13:39;;;;;;;3.80;3.23;;;;;;;26.74;33.53;99063.16;5069890;28;20195;-68
2022/08/01 07:16:06;;;;;;;5.40;3.83;;;;;;;26.76;33.80;99072.69;5069607;28;20257;-66
2022/08/01 07:18:34;;;;;;;4.78;3.58;;;;;;;26.80;33.99;99078.69;5069471;28;20200;-68
2022/08/01 07:21:01;;;;;;;3.92;3.63;;;;;;;26.94;33.98;99078.75;5069784;28;20632;-68
2022/08/01 07:23:28;;;;;;;3.70;3.10;;;;;;;26.96;33.37;99076.88;5069707;28;20196;-68
2022/08/01 07:25:55;;;;;;;5.40;3.30;;;;;;;26.93;33.87;99082.31;5068966;28;20437;-68
2022/08/01 07:28:21;;;;;;;7.13;3.97;;;;;;;26.97;33.63;99062.75;5069527;28;20195;-68
2022/08/01 07:30:48;;;;;;;3.33;3.03;;;;;;;27.10;33.31;99076.94;5069606;28;20195;-68
2022/08/01 07:33:15;;;;;;;3.05;2.83;;;;;;;27.04;32.63;99061.47;5069469;28;20188;-68
2022/08/01 07:35:43;;;;;;;6.32;3.92;;;;;;;26.87;33.15;99075.59;5069235;28;20257;-66
2022/08/01 07:38:10;;;;;;;4.27;2.87;;;;;;;26.97;32.77;99059.28;5069061;28;20191;-67
2022/08/01 07:40:37;;;;;;;3.67;3.38;;;;;;;27.00;32.89;99069.66;5069621;28;20226;-67
2022/08/01 07:43:04;;;;;;;6.43;3.20;;;;;;;26.93;32.78;99067.34;5069189;28;20192;-67
2022/08/01 07:45:31;;;;;;;3.35;3.05;;;;;;;26.92;32.78;99051.59;5069075;28;20199;-60
2022/08/01 07:48:03;;;;;;;4.20;3.45;;;;;;;27.05;32.91;99052.63;5069109;28;20257;-60
2022/08/01 07:50:30;;;;;;;3.70;3.40;;;;;;;27.14;32.89;99054.69;5069059;28;20195;-60
2022/08/01 07:52:58;;;;;;;5.13;3.40;;;;;;;27.18;32.77;99043.03;5069517;28;20202;-60
2022/08/01 07:55:26;;;;;;;8.52;3.05;;;;;;;27.31;32.66;99049.28;5068643;28;20257;-60
2022/08/01 07:57:53;;;;;;;4.75;3.63;;;;;;;27.50;32.45;99049.06;5069113;28;20267;-59
2022/08/01 08:00:19;;;;;;;3.55;3.22;;;;;;;27.60;32.28;99036.19;5069092;28;20238;-59
2022/08/01 08:02:46;;;;;;;3.63;2.65;;;;;;;27.63;31.48;99046.56;5069253;28;20292;-60
2022/08/01 08:05:13;;;;;;;6.43;3.30;;;;;;;27.52;32.23;99041.94;5069104;28;20444;-60
2022/08/01 08:07:40;;;;;;;5.78;3.22;;;;;;;27.52;32.14;99016.38;5069284;28;20207;-60
2022/08/01 08:10:10;;;;;;;2.58;2.38;;;;;;;27.69;31.23;99054.13;5069444;28;20191;-61
2022/08/01 08:12:37;;;;;;;3.13;2.80;;;;;;;27.70;31.69;99035.53;5069333;28;20764;-60
2022/08/01 08:15:05;;;;;;;4.20;2.88;;;;;;;27.68;31.29;99023.38;5069888;28;20209;-60
2022/08/01 08:17:33;;;;;;;5.25;3.67;;;;;;;27.74;31.50;99023.00;5069105;28;20647;-60
2022/08/01 08:20:00;;;;;;;5.43;2.88;;;;;;;27.62;31.68;99026.38;5069157;28;20698;-60
2022/08/01 08:22:27;;;;;;;3.60;2.92;;;;;;;27.74;31.49;99020.38;5068913;28;20195;-60
2022/08/01 08:24:54;;;;;;;3.72;2.88;;;;;;;27.74;31.83;99021.22;5068725;28;20579;-59
2022/08/01 08:27:22;;;;;;;4.53;3.08;;;;;;;27.87;31.89;99026.59;5068802;28;20202;-59
2022/08/01 08:29:49;;;;;;;3.83;3.00;;;;;;;27.82;31.11;99021.59;5067916;28;20870;-60
2022/08/01 08:32:16;;;;;;;4.65;2.60;;;;;;;27.99;31.13;99015.28;5068962;28;20198;-60
2022/08/01 08:34:43;;;;;;;3.10;2.67;;;;;;;28.11;30.81;99027.72;5068555;28;20201;-59
2022/08/01 08:37:10;;;;;;;2.70;2.50;;;;;;;28.03;30.34;99019.44;5068760;28;20195;-59
2022/08/01 08:39:37;;;;;;;3.35;2.75;;;;;;;28.00;30.75;99009.88;5068643;28;20211;-59
2022/08/01 08:42:08;;;;;;;3.28;2.70;;;;;;;28.07;31.10;99024.44;5068765;28;20191;-59
2022/08/01 08:44:36;;;;;;;3.78;2.70;;;;;;;28.20;31.05;99024.53;5068494;28;20188;-59
2022/08/01 08:47:06;;;;;;;3.40;2.72;;;;;;;28.13;30.75;99031.13;5069060;28;20263;-60
2022/08/01 08:49:33;;;;;;;3.33;3.08;;;;;;;28.20;31.16;99006.03;5068719;28;20230;-59
2022/08/01 08:52:01;;;;;;;3.35;3.10;;;;;;;28.08;30.71;98953.97;5068492;28;20207;-59
2022/08/01 08:54:31;;;;;;;3.40;3.08;;;;;;;28.49;30.99;99009.44;5068445;28;20658;-60
2022/08/01 08:56:59;;;;;;;3.03;2.72;;;;;;;28.42;31.09;99010.78;5068641;28;20206;-59
2022/08/01 08:59:26;;;;;;;5.22;2.55;;;;;;;28.40;31.12;99005.63;5068504;28;20294;-59
2022/08/01 09:01:55;;;;;;;7.22;2.72;;;;;;;28.42;31.23;98998.44;5068632;28;20630;-59
2022/08/01 09:04:23;;;;;;;4.20;2.88;;;;;;;28.56;31.60;99002.81;5068577;28;20287;-60
2022/08/01 09:06:49;;;;;;;3.30;3.00;;;;;;;28.38;31.13;99023.34;5068973;28;20202;-60
2022/08/01 09:09:16;;;;;;;3.60;2.87;;;;;;;28.17;31.59;98997.44;5071745;28;20436;-60
2022/08/01 09:11:44;;;;;;;7.00;3.40;;;;;;;28.36;31.60;99001.47;5071782;28;20663;-60
2022/08/01 09:14:13;;;;;;;3.25;2.75;;;;;;;28.38;31.51;98996.06;5072341;28;20594;-60
2022/08/01 09:16:43;;;;;;;2.90;2.50;;;;;;;28.51;30.97;99002.28;5072088;28;20286;-61
2022/08/01 09:19:14;;;;;;;3.63;2.33;;;;;;;28.57;30.81;99021.22;5071803;28;20218;-60
2022/08/01 09:21:55;;;;;;;2.88;2.67;;;;;;;28.61;31.03;99001.59;5072055;28;20673;-60
2022/08/01 09:24:23;;;;;;;2.72;2.50;;;;;;;28.67;31.35;98987.16;5072237;28;20197;-60
2022/08/01 09:26:50;;;;;;;2.58;2.38;;;;;;;28.64;31.20;98990.00;5072346;28;20441;-60
2022/08/01 09:29:22;;;;;;;6.95;2.83;;;;;;;28.56;31.16;98974.59;5072306;28;20199;-60
2022/08/01 09:31:49;;;;;;;5.43;2.80;;;;;;;28.67;31.59;98982.72;5071624;28;20184;-60
2022/08/01 09:34:25;;;;;;;2.92;2.53;;;;;;;28.94;31.23;98987.97;5070712;28;20928;-60
2022/08/01 09:36:55;;;;;;;4.97;2.75;;;;;;;28.82;30.71;99003.78;5071680;28;20240;-59
2022/08/01 09:39:25;;;;;;;2.92;2.67;;;;;;;28.90;31.03;98983.00;5071652;28;20211;-60
2022/08/01 09:41:53;;;;;;;3.90;2.85;;;;;;;29.07;31.19;98986.19;5071785;28;20540;-59
2022/08/01 09:44:20;;;;;;;2.53;2.33;;;;;;;29.13;30.15;98979.63;5072114;28;20652;-60
2022/08/01 09:46:52;;;;;;;2.78;2.50;;;;;;;29.03;30.56;98982.06;5071753;28;20577;-60
2022/08/01 09:49:31;;;;;;;5.88;2.58;;;;;;;28.98;30.85;98968.28;5071303;28;20541;-60
2022/08/01 09:51:59;;;;;;;2.95;2.47;;;;;;;29.12;31.01;98988.50;5071376;28;20650;-67
2022/08/01 09:54:31;;;;;;;2.53;2.38;;;;;;;28.98;31.15;98986.78;5071297;28;20716;-67
2022/08/01 09:57:10;;;;;;;2.97;2.78;;;;;;;28.92;31.12;98970.50;5071354;28;20546;-66
2022/08/01 09:59:40;;;;;;;3.25;2.25;;;;;;;28.86;31.34;98977.06;5071174;28;20586;-67
2022/08/01 10:02:07;;;;;;;2.70;2.50;;;;;;;28.87;31.16;99002.53;5071510;28;20195;-67
2022/08/01 10:04:35;;;;;;;6.65;2.63;;;;;;;28.87;31.46;98968.16;5071406;28;20200;-67
2022/08/01 10:07:07;;;;;;;3.05;2.85;;;;;;;28.77;31.91;98950.34;5071236;28;20191;-67
2022/08/01 10:09:35;;;;;;;2.85;2.65;;;;;;;28.86;31.87;98965.63;5071032;28;20199;-67
2022/08/01 10:12:03;;;;;;;4.45;2.50;;;;;;;29.05;31.81;98945.75;5070976;28;20256;-66
2022/08/01 10:14:31;;;;;;;2.67;2.47;;;;;;;29.17;31.38;98958.16;5070244;28;20806;-67
2022/08/01 10:16:59;;;;;;;2.97;2.70;;;;;;;29.34;31.18;98959.66;5071334;28;20209;-60
2022/08/01 10:19:28;;;;;;;3.90;2.60;;;;;;;29.36;30.73;98972.81;5070375;28;20612;-60
2022/08/01 10:21:58;;;;;;;2.58;2.42;;;;;;;29.41;31.17;98960.09;5071365;28;20195;-60
2022/08/01 10:24:27;;;;;;;3.88;2.30;;;;;;;29.25;30.99;98963.78;5071151;28;20192;-60
2022/08/01 10:27:02;;;;;;;3.40;2.50;;;;;;;29.32;30.65;98955.44;5070962;28;20203;-60
2022/08/01 10:29:36;;;;;;;3.00;2.80;;;;;;;29.08;30.90;98912.97;5071181;28;20231;-60
2022/08/01 10:32:05;;;;;;;2.90;2.60;;;;;;;29.37;31.22;98961.25;5071004;28;20194;-59
2022/08/01 10:34:33;;;;;;;3.15;2.25;;;;;;;29.51;30.85;98961.16;5070651;28;20678;-60
2022/08/01 10:37:01;;;;;;;2.70;2.50;;;;;;;29.60;31.15;98974.63;5070657;28;20188;-60
2022/08/01 10:39:29;;;;;;;4.68;2.60;;;;;;;29.52;30.43;98960.22;5070735;28;20200;-59
2022/08/01 10:41:57;;;;;;;3.95;3.40;;;;;;;29.54;30.37;98964.44;5070461;28;20229;-60
2022/08/01 10:44:25;;;;;;;4.18;3.75;;;;;;;29.63;30.45;98963.81;5070543;28;20260;-60
2022/08/01 10:46:58;;;;;;;3.88;3.47;;;;;;;29.68;30.85;98969.63;5070328;28;20685;-60
2022/08/01 10:49:28;;;;;;;10.45;8.13;;;;;;;29.77;30.70;98966.34;5070649;28;20235;-60
2022/08/01 10:51:55;;;;;;;7.28;5.82;;;;;;;30.07;30.70;98954.53;5070140;28;20199;-60
2022/08/01 10:54:27;;;;;;;11.40;8.93;;;;;;;29.88;29.66;98951.50;5070306;28;20553;-61
2022/08/01 10:56:56;;;;;;;7.72;5.47;;;;;;;29.63;30.02;98958.53;5070248;28;20195;-60
2022/08/01 10:59:25;;;;;;;5.13;4.60;;;;;;;29.72;30.71;98959.69;5070021;28;20231;-60
2022/08/01 11:01:59;;;;;;;9.77;5.43;;;;;;;29.91;30.17;98952.16;5070091;28;20187;-60
2022/08/01 11:04:45;;;;;;;4.32;3.20;;;;;;;29.95;29.54;98945.66;5070244;28;20233;-60
2022/08/01 11:07:17;;;;;;;3.60;2.63;;;;;;;30.02;29.63;98925.75;5070348;28;20195;-60
2022/08/01 11:09:47;;;;;;;2.95;2.70;;;;;;;30.34;30.11;98947.25;5070436;28;20257;-60
2022/08/01 11:12:16;;;;;;;3.50;3.15;;;;;;;30.46;29.97;98945.53;5070370;28;20696;-60
2022/08/01 11:15:24;;;;;;;3.08;2.72;;;;;;;30.52;30.02;98937.13;5070204;28;20223;-60
2022/08/01 11:17:51;;;;;;;3.40;2.80;;;;;;;30.62;29.48;98944.28;5068800;28;20499;-61
2022/08/01 11:20:20;;;;;;;15.73;14.13;;;;;;;30.66;29.25;98948.38;5069892;28;20211;-61
2022/08/01 11:23:20;;;;;;;6.80;4.63;;;;;;;30.62;29.17;98948.75;5069776;28;20803;-60
2022/08/01 11:26:16;;;;;;;3.95;3.20;;;;;;;30.71;28.74;98948.88;5062193;28;20253;-61
2022/08/01 11:28:46;;;;;;;5.20;3.08;;;;;;;30.63;29.41;98924.75;5069859;28;20218;-61
2022/08/01 11:31:32;;;;;;;13.30;10.07;;;;;;;30.83;29.17;98933.84;5068896;28;20678;-60
2022/08/01 11:34:00;;;;;;;9.43;8.38;;;;;;;30.87;28.56;98922.91;5069683;28;20191;-60
2022/08/01 11:36:27;;;;;;;8.15;6.90;;;;;;;31.17;28.89;98943.66;5069455;28;20201;-61
2022/08/01 11:39:15;;;;;;;4.20;3.80;;;;;;;31.19;28.03;98935.56;5069630;28;20192;-60
2022/08/01 11:41:44;;;;;;;3.40;3.10;;;;;;;31.20;28.28;98924.84;5069210;28;20492;-61